Time;durP1;ratioP1;P1;durP2;ratioP2;P2;SDS_P1;SDS_P2;PMS_P1;PMS_P2;Temp;Humidity;BMP_temperature;BMP_pressure;BME280_temperature;BME280_humidity;BME280_pressure;Samples;Min_cycle;Max_cycle;Signal;HPM_P1;HPM_P2
2022/01/11 00:01:48;;;;;;;;;24.67;24.00;;;;;6.05;69.44;102499.28;4977899;28;45524;-66
2022/01/11 00:04:16;;;;;;;;;29.00;24.00;;;;;6.02;69.03;102481.81;4977405;28;46317;-67
2022/01/11 00:06:46;;;;;;;;;24.00;20.67;;;;;5.47;69.50;102410.44;4986939;28;45469;-66
2022/01/11 00:12:10;;;;;;;;;28.33;24.67;;;;;5.84;70.04;102495.81;4953661;28;45474;-67
2022/01/11 00:14:36;;;;;;;;;27.00;26.67;;;;;5.60;70.10;102452.91;4979250;28;48040;-68
2022/01/11 00:17:01;;;;;;;;;29.67;25.33;;;;;5.85;69.33;102510.72;4996187;28;45532;-66
2022/01/11 00:19:28;;;;;;;;;24.67;22.67;;;;;5.64;70.55;102504.66;4979742;28;45318;-66
2022/01/11 00:21:55;;;;;;;;;33.00;27.00;;;;;5.62;70.35;102501.22;4997583;28;45475;-69
2022/01/11 00:24:30;;;;;;;;;29.67;23.00;;;;;5.60;70.38;102499.56;4979524;28;46120;-66
2022/01/11 00:27:09;;;;;;;;;32.67;29.00;;;;;5.55;71.13;102501.53;4985452;28;45439;-66
2022/01/11 00:29:39;;;;;;;;;30.67;23.00;;;;;5.47;71.02;102486.06;4976549;28;45472;-68
2022/01/11 00:32:10;;;;;;;;;32.00;28.67;;;;;5.53;70.73;102506.88;4978635;28;45360;-67
2022/01/11 00:34:50;;;;;;;;;30.67;28.67;;;;;5.53;71.22;102501.63;4977724;28;45682;-67
2022/01/11 00:37:17;;;;;;;;;25.00;23.33;;;;;5.52;70.85;102496.41;4977239;28;45424;-65
2022/01/11 00:39:45;;;;;;;;;22.67;21.33;;;;;5.02;70.85;102409.88;4959769;28;45312;-66
2022/01/11 00:42:12;;;;;;;;;26.00;20.33;;;;;5.56;70.98;102492.69;4977517;28;45549;-67
2022/01/11 00:44:38;;;;;;;;;26.33;22.33;;;;;5.43;70.67;102466.91;4959193;28;46521;-68
2022/01/11 00:47:04;;;;;;;;;27.67;24.33;;;;;5.57;70.53;102490.00;4987866;28;45481;-66
2022/01/11 00:49:29;;;;;;;;;25.00;22.00;;;;;5.59;70.80;102492.56;4996662;28;45545;-66
2022/01/11 00:51:55;;;;;;;;;26.67;23.00;;;;;5.61;70.05;102496.88;4997039;28;45496;-66
2022/01/11 00:54:20;;;;;;;;;28.67;24.00;;;;;5.56;70.39;102487.44;4996361;28;46471;-65
2022/01/11 00:56:45;;;;;;;;;28.33;25.33;;;;;5.56;70.08;102487.44;4995783;28;45307;-66
2022/01/11 00:59:11;;;;;;;;;28.33;23.33;;;;;5.48;69.71;102458.75;4996458;28;45283;-66
2022/01/11 01:01:37;;;;;;;;;28.00;25.33;;;;;5.56;70.06;102479.50;4997837;28;45584;-67
2022/01/11 01:04:07;;;;;;;;;32.00;27.00;;;;;5.48;70.54;102486.00;4999660;28;46387;-66
2022/01/11 01:06:33;;;;;;;;;28.33;24.67;;;;;5.22;70.63;102445.91;4992568;28;45260;-65
2022/01/11 01:08:59;;;;;;;;;32.00;29.00;;;;;5.61;70.79;102494.22;4979933;28;45318;-66
2022/01/11 01:11:25;;;;;;;;;35.67;27.00;;;;;5.58;71.33;102499.63;4980291;28;45264;-65
2022/01/11 01:13:51;;;;;;;;;29.67;25.33;;;;;5.67;70.31;102508.91;4979869;28;46535;-66
2022/01/11 01:16:16;;;;;;;;;29.00;24.00;;;;;5.71;70.42;102506.06;4981763;28;45456;-67
2022/01/11 01:18:42;;;;;;;;;30.33;23.67;;;;;5.56;70.11;102482.16;4999697;28;45327;-65
2022/01/11 01:21:07;;;;;;;;;27.67;23.00;;;;;5.68;70.30;102524.69;4999972;28;45232;-66
2022/01/11 01:23:34;;;;;;;;;33.00;26.00;;;;;5.49;70.35;102492.13;4999656;28;46566;-66
2022/01/11 01:26:01;;;;;;;;;36.67;33.00;;;;;5.57;69.90;102494.41;4997454;28;45412;-66
2022/01/11 01:28:27;;;;;;;;;29.33;25.67;;;;;5.62;69.61;102518.84;4979749;28;45464;-66
2022/01/11 01:30:53;;;;;;;;;26.67;23.67;;;;;5.67;70.23;102517.69;4979996;28;45331;-67
2022/01/11 01:33:20;;;;;;;;;28.00;25.00;;;;;5.55;69.93;102494.47;4979578;28;45680;-67
2022/01/11 01:35:51;;;;;;;;;30.00;23.67;;;;;5.70;70.23;102506.13;4979793;28;45315;-69
2022/01/11 01:38:22;;;;;;;;;27.33;24.00;;;;;5.76;69.47;102509.34;4980027;28;45445;-66
2022/01/11 01:40:50;;;;;;;;;24.33;24.33;;;;;5.86;69.79;102514.22;4979599;28;45350;-67
2022/01/11 01:43:16;;;;;;;;;33.67;26.33;;;;;5.48;69.79;102458.75;4961721;28;46946;-65
2022/01/11 01:45:45;;;;;;;;;33.00;29.67;;;;;5.66;69.14;102504.56;4978355;28;45302;-66
2022/01/11 01:48:13;;;;;;;;;37.67;33.00;;;;;5.71;69.85;102534.25;4998333;28;45513;-66
2022/01/11 01:50:38;;;;;;;;;25.00;21.67;;;;;5.62;69.87;102527.59;4999437;28;45347;-67
2022/01/11 01:53:10;;;;;;;;;29.67;28.67;;;;;5.63;70.45;102537.22;4998875;28;45319;-67
2022/01/11 01:55:36;;;;;;;;;31.33;27.67;;;;;5.56;70.15;102525.22;4999013;28;45290;-67
2022/01/11 01:58:02;;;;;;;;;40.67;32.33;;;;;5.26;69.91;102484.38;4980805;28;45226;-66
2022/01/11 02:00:29;;;;;;;;;30.67;30.00;;;;;5.55;71.13;102544.63;4979894;28;45256;-66
2022/01/11 02:03:08;;;;;;;;;34.33;28.67;;;;;5.32;71.01;102523.66;4978992;28;46648;-66
2022/01/11 02:05:33;;;;;;;;;39.33;34.67;;;;;5.31;70.16;102511.41;4978981;28;45596;-66
2022/01/11 02:07:59;;;;;;;;;32.67;29.33;;;;;5.32;70.55;102527.16;4996393;28;45282;-65
2022/01/11 02:10:24;;;;;;;;;40.33;34.33;;;;;5.54;70.56;102553.44;4981473;28;45598;-67
2022/01/11 02:12:51;;;;;;;;;37.33;30.33;;;;;5.34;70.32;102524.44;4998516;28;46190;-65
2022/01/11 02:15:16;;;;;;;;;35.00;33.67;;;;;5.46;70.46;102539.75;4998894;28;45240;-65
2022/01/11 02:17:42;;;;;;;;;36.33;34.00;;;;;5.45;70.62;102564.41;4983492;28;45311;-66
2022/01/11 02:20:13;;;;;;;;;40.33;34.67;;;;;5.38;70.36;102552.41;4979346;28;45327;-67
2022/01/11 02:22:38;;;;;;;;;29.67;24.33;;;;;5.36;70.57;102548.97;4977474;28;48950;-67
2022/01/11 02:25:04;;;;;;;;;36.33;30.67;;;;;5.09;70.22;102514.13;4979683;28;45364;-67
2022/01/11 02:27:29;;;;;;;;;40.00;34.67;;;;;5.20;70.09;102546.13;4961561;28;45347;-67
2022/01/11 02:29:55;;;;;;;;;40.67;33.33;;;;;5.21;70.49;102561.06;4979542;28;45297;-68
2022/01/11 02:32:21;;;;;;;;;33.67;30.67;;;;;5.16;70.71;102547.19;4978699;28;46704;-65
2022/01/11 02:34:46;;;;;;;;;36.67;31.00;;;;;5.22;70.84;102551.38;4978739;28;45259;-66
2022/01/11 02:37:12;;;;;;;;;39.00;30.33;;;;;5.16;70.53;102558.59;4977744;28;45475;-66
2022/01/11 02:39:37;;;;;;;;;30.33;28.67;;;;;5.02;70.39;102552.22;4979005;28;45410;-66
2022/01/11 02:42:03;;;;;;;;;35.00;29.00;;;;;5.02;71.38;102560.97;4981482;28;46627;-67
2022/01/11 02:44:29;;;;;;;;;30.33;27.00;;;;;4.74;70.53;102521.72;4998256;28;45420;-67
2022/01/11 02:46:55;;;;;;;;;21.33;18.00;;;;;4.21;71.38;102461.53;4998129;28;45366;-66
2022/01/11 02:49:20;;;;;;;;;35.67;31.67;;;;;4.78;71.63;102573.34;4998611;28;45525;-65
2022/01/11 02:51:46;;;;;;;;;38.67;33.33;;;;;4.79;70.79;102561.88;4996177;28;46442;-67
2022/01/11 02:54:11;;;;;;;;;37.00;33.00;;;;;4.82;71.26;102568.84;4978536;28;45303;-65
2022/01/11 02:56:36;;;;;;;;;33.67;27.67;;;;;4.74;70.98;102544.56;4978498;28;45383;-68
2022/01/11 02:59:03;;;;;;;;;32.33;31.00;;;;;4.18;70.67;102439.72;4978866;28;45282;-65
2022/01/11 03:01:28;;;;;;;;;27.00;21.00;;;;;4.94;71.04;102555.16;4978329;28;46491;-67
2022/01/11 03:03:54;;;;;;;;;28.33;24.00;;;;;4.61;69.98;102499.44;4977940;28;45563;-65
2022/01/11 03:06:19;;;;;;;;;33.33;29.33;;;;;4.89;70.90;102560.59;4978349;28;45240;-65
2022/01/11 03:08:47;;;;;;;;;31.67;27.33;;;;;4.87;70.36;102573.00;4978778;28;45588;-66
2022/01/11 03:11:18;;;;;;;;;32.67;25.67;;;;;4.49;69.85;102495.50;4976958;28;48082;-67
2022/01/11 03:13:44;;;;;;;;;26.67;23.67;;;;;4.63;70.84;102528.34;4995420;28;45391;-66
2022/01/11 03:16:11;;;;;;;;;30.67;26.33;;;;;4.41;70.98;102479.19;4997569;28;45266;-66
2022/01/11 03:18:36;;;;;;;;;30.00;27.33;;;;;4.98;70.39;102547.97;4998356;28;45223;-65
2022/01/11 03:21:02;;;;;;;;;22.33;20.00;;;;;5.06;69.88;102583.66;4997516;28;45189;-66
2022/01/11 03:23:28;;;;;;;;;22.33;17.33;;;;;4.96;70.25;102592.84;4997351;28;45472;-66
2022/01/11 03:25:54;;;;;;;;;26.00;23.33;;;;;4.75;70.93;102556.81;4997390;28;45381;-66
2022/01/11 03:28:21;;;;;;;;;32.00;26.00;;;;;4.95;70.13;102585.00;4997838;28;45249;-67
2022/01/11 03:30:47;;;;;;;;;28.67;24.67;;;;;4.67;70.75;102549.22;4979155;28;47545;-66
2022/01/11 03:33:12;;;;;;;;;29.00;28.33;;;;;4.77;70.85;102560.25;4997383;28;45354;-67
2022/01/11 03:35:39;;;;;;;;;21.00;20.00;;;;;5.00;70.99;102594.41;4997557;28;45255;-66
2022/01/11 03:38:06;;;;;;;;;30.00;27.33;;;;;4.63;70.53;102525.72;4997675;28;45559;-66
2022/01/11 03:40:32;;;;;;;;;30.33;27.33;;;;;5.07;70.34;102601.19;4993936;28;46211;-65
2022/01/11 03:42:58;;;;;;;;;30.33;25.00;;;;;5.11;70.51;102597.47;4977247;28;45322;-66
2022/01/11 03:45:25;;;;;;;;;29.00;24.67;;;;;4.94;70.44;102547.25;4977943;28;45223;-66
2022/01/11 03:47:52;;;;;;;;;22.33;21.00;;;;;5.15;69.79;102588.53;4960418;28;45576;-66
2022/01/11 03:50:19;;;;;;;;;27.00;22.33;;;;;5.03;70.17;102562.69;4978456;28;46278;-66
2022/01/11 03:52:45;;;;;;;;;28.67;22.67;;;;;5.07;70.25;102574.81;4997134;28;45417;-67
2022/01/11 03:55:21;;;;;;;;;21.00;19.67;;;;;5.16;69.51;102600.78;4997382;28;45291;-66
2022/01/11 03:57:47;;;;;;;;;29.33;25.00;;;;;4.70;70.04;102504.31;4979843;28;45561;-66
2022/01/11 04:00:17;;;;;;;;;30.33;27.00;;;;;5.13;69.64;102594.78;4997192;28;46651;-67
2022/01/11 04:02:43;;;;;;;;;29.00;25.00;;;;;5.15;69.79;102600.84;4957804;28;45430;-66
2022/01/11 04:05:11;;;;;;;;;25.33;22.00;;;;;5.04;70.46;102592.53;4957948;28;45377;-66
2022/01/11 04:07:37;;;;;;;;;34.67;31.33;;;;;5.02;70.14;102597.03;4941279;28;45662;-66
2022/01/11 04:10:03;;;;;;;;;32.67;28.00;;;;;4.24;70.46;102468.47;4957123;28;46367;-67
2022/01/11 04:12:29;;;;;;;;;32.00;30.33;;;;;4.89;70.41;102600.16;4996906;28;45363;-67
2022/01/11 04:14:54;;;;;;;;;33.00;27.33;;;;;4.84;70.94;102590.72;4979364;28;45481;-66
2022/01/11 04:17:20;;;;;;;;;31.67;24.33;;;;;4.68;70.56;102563.25;4979261;28;45542;-66
2022/01/11 04:19:46;;;;;;;;;26.67;23.00;;;;;4.86;70.86;102580.97;4996822;28;45877;-67
2022/01/11 04:22:11;;;;;;;;;28.67;28.00;;;;;4.85;70.12;102572.19;4979655;28;45310;-66
2022/01/11 04:24:37;;;;;;;;;35.67;33.33;;;;;4.66;69.92;102544.88;4977371;28;45363;-66
2022/01/11 04:27:02;;;;;;;;;24.00;21.33;;;;;4.90;70.23;102598.38;4959828;28;45474;-67
2022/01/11 04:29:27;;;;;;;;;27.33;26.33;;;;;4.72;71.13;102580.66;4977229;28;46625;-66
2022/01/11 04:31:53;;;;;;;;;37.67;30.67;;;;;4.73;70.75;102595.53;4991112;28;45338;-67
2022/01/11 04:34:19;;;;;;;;;33.00;28.33;;;;;4.69;71.45;102597.44;4996792;28;45450;-67
2022/01/11 04:36:44;;;;;;;;;31.00;27.00;;;;;4.52;70.35;102587.56;4982687;28;45282;-66
2022/01/11 04:39:13;;;;;;;;;30.00;24.67;;;;;4.64;71.02;102598.56;5000315;28;45732;-66
2022/01/11 04:41:40;;;;;;;;;30.33;24.33;;;;;4.58;70.56;102570.66;4987674;28;45581;-67
2022/01/11 04:44:06;;;;;;;;;28.00;26.67;;;;;4.31;70.31;102521.72;4981309;28;45267;-65
2022/01/11 04:46:32;;;;;;;;;33.00;27.33;;;;;4.47;69.52;102554.44;4981021;28;45469;-64
2022/01/11 04:49:00;;;;;;;;;29.00;25.67;;;;;4.47;69.89;102557.94;4980380;28;45826;-68
2022/01/11 04:51:26;;;;;;;;;39.67;35.00;;;;;4.64;69.31;102607.31;4990053;28;45271;-67
2022/01/11 04:53:53;;;;;;;;;37.33;33.00;;;;;4.50;70.45;102594.69;4982658;28;45485;-66
2022/01/11 04:56:19;;;;;;;;;39.50;35.75;;;;;4.49;70.54;102598.22;5000053;28;45309;-66
2022/01/11 04:58:45;;;;;;;;;35.75;31.50;;;;;4.28;70.31;102583.25;4999590;28;46629;-66
2022/01/11 05:01:10;;;;;;;;;45.75;39.00;;;;;4.55;70.22;102624.31;4992002;28;45268;-66
2022/01/11 05:03:36;;;;;;;;;39.00;34.67;;;;;4.55;69.67;102620.84;4980210;28;45422;-67
2022/01/11 05:06:04;;;;;;;;;38.00;30.33;;;;;4.09;70.09;102555.91;4980396;28;45406;-65
2022/01/11 05:08:29;;;;;;;;;42.00;35.00;;;;;4.33;70.58;102607.63;4985422;28;46380;-66
2022/01/11 05:10:55;;;;;;;;;45.67;37.67;;;;;4.43;69.94;102627.44;4999936;28;45545;-65
2022/01/11 05:13:20;;;;;;;;;33.33;30.33;;;;;4.41;70.78;102636.31;4999922;28;45480;-67
2022/01/11 05:15:46;;;;;;;;;36.50;31.50;;;;;4.41;70.98;102637.19;4999735;28;45501;-67
2022/01/11 05:18:12;;;;;;;;;36.00;32.00;;;;;4.40;70.66;102634.56;4995969;28;46633;-66
2022/01/11 05:20:39;;;;;;;;;44.50;36.50;;;;;4.37;70.08;102624.16;4979710;28;45255;-67
2022/01/11 05:23:06;;;;;;;;;37.75;34.75;;;;;4.40;70.50;102627.53;4979819;28;45455;-64
2022/01/11 05:25:31;;;;;;;;;38.00;33.67;;;;;4.30;69.85;102609.53;4962411;28;45492;-67
2022/01/11 05:27:59;;;;;;;;;43.00;34.33;;;;;4.31;70.55;102616.50;4980337;28;46701;-66
2022/01/11 05:30:25;;;;;;;;;32.67;31.33;;;;;4.53;69.98;102639.31;4999322;28;45364;-66
2022/01/11 05:32:51;;;;;;;;;40.67;33.00;;;;;4.31;69.98;102616.50;4999252;28;45526;-66
2022/01/11 05:35:18;;;;;;;;;34.50;31.25;;;;;4.28;70.26;102630.66;4999824;28;45278;-66
2022/01/11 05:37:44;;;;;;;;;39.33;28.33;;;;;4.22;71.48;102629.13;4998965;28;46447;-67
2022/01/11 05:40:11;;;;;;;;;50.00;35.33;;;;;4.35;70.55;102637.41;4962233;28;45273;-65
2022/01/11 05:42:37;;;;;;;;;38.33;34.00;;;;;4.43;70.20;102648.50;4979736;28;45323;-66
2022/01/11 05:45:04;;;;;;;;;34.67;33.00;;;;;3.91;70.34;102554.81;4962052;28;45463;-66
2022/01/11 05:47:29;;;;;;;;;42.33;35.00;;;;;4.13;69.78;102594.34;4978692;28;45729;-64
2022/01/11 05:49:55;;;;;;;;;44.33;34.67;;;;;4.50;69.61;102663.16;4979562;28;45493;-66
2022/01/11 05:52:20;;;;;;;;;40.33;36.33;;;;;4.45;69.70;102638.78;4978321;28;45528;-66
2022/01/11 05:54:46;;;;;;;;;38.25;32.50;;;;;4.45;69.70;102633.50;4979687;28;45188;-67
2022/01/11 05:57:11;;;;;;;;;38.75;35.25;;;;;4.54;69.14;102648.94;4998832;28;47164;-67
2022/01/11 05:59:36;;;;;;;;;40.67;35.33;;;;;4.63;69.03;102646.91;4981559;28;46040;-66
2022/01/11 06:02:02;;;;;;;;;30.00;28.50;;;;;4.47;68.74;102643.97;4999384;28;45227;-66
2022/01/11 06:04:27;;;;;;;;;42.00;35.33;;;;;4.46;69.15;102647.53;4999143;28;45243;-66
2022/01/11 06:06:53;;;;;;;;;34.25;34.25;;;;;4.15;69.23;102619.69;4998220;28;45510;-66
2022/01/11 06:09:18;;;;;;;;;40.67;35.67;;;;;4.38;69.44;102663.59;4998930;28;45286;-65
2022/01/11 06:11:44;;;;;;;;;41.75;32.00;;;;;4.44;69.65;102662.53;4998201;28;45477;-67
2022/01/11 06:14:10;;;;;;;;;38.67;35.00;;;;;4.15;69.65;102632.88;4999465;28;45349;-67
2022/01/11 06:16:36;;;;;;;;;43.50;37.50;;;;;4.34;69.38;102690.97;4992996;28;46704;-67
2022/01/11 06:19:03;;;;;;;;;30.67;27.67;;;;;4.35;69.35;102695.31;4983070;28;45556;-67
2022/01/11 06:21:28;;;;;;;;;41.25;34.50;;;;;4.01;69.18;102623.78;4978714;28;45588;-67
2022/01/11 06:23:53;;;;;;;;;44.33;35.33;;;;;4.37;68.96;102688.22;4978855;28;45259;-67
2022/01/11 06:26:19;;;;;;;;;35.50;33.00;;;;;4.40;68.76;102687.25;4993746;28;45740;-67
2022/01/11 06:28:44;;;;;;;;;49.00;38.67;;;;;4.47;67.89;102686.13;4998689;28;45481;-68
2022/01/11 06:31:10;;;;;;;;;36.00;35.33;;;;;4.55;68.40;102682.28;4989716;28;45247;-68
2022/01/11 06:33:36;;;;;;;;;39.25;32.75;;;;;4.64;69.00;102688.13;4972904;28;45372;-67
2022/01/11 06:36:02;;;;;;;;;46.25;35.25;;;;;4.76;68.15;102687.63;4980244;28;48110;-67
2022/01/11 06:38:27;;;;;;;;;38.33;36.00;;;;;4.11;67.61;102565.47;4996466;28;45518;-65
2022/01/11 06:40:53;;;;;;;;;37.00;35.67;;;;;4.85;67.79;102674.13;4998220;28;45303;-68
2022/01/11 06:43:18;;;;;;;;;40.67;32.00;;;;;4.67;67.31;102628.28;4997126;28;45322;-67
2022/01/11 06:45:43;;;;;;;;;42.67;37.00;;;;;4.40;66.99;102572.22;4985502;28;46325;-67
2022/01/11 06:48:10;;;;;;;;;45.25;37.25;;;;;5.14;66.78;102702.81;4979064;28;45266;-67
2022/01/11 06:50:36;;;;;;;;;43.33;35.00;;;;;4.97;66.23;102696.50;4981298;28;45450;-67
2022/01/11 06:53:02;;;;;;;;;43.00;36.00;;;;;4.84;66.42;102698.75;4996714;28;45367;-65
2022/01/11 06:55:28;;;;;;;;;43.50;38.50;;;;;4.70;67.04;102675.56;4994520;28;45864;-67
2022/01/11 06:57:54;;;;;;;;;49.75;38.50;;;;;4.49;66.66;102676.38;4963196;28;45491;-68
2022/01/11 07:00:19;;;;;;;;;47.75;40.50;;;;;4.54;67.16;102691.09;4989130;28;45666;-67
2022/01/11 07:02:49;;;;;;;;;42.00;37.25;;;;;4.19;67.15;102638.88;4979903;28;45410;-66
2022/01/11 07:05:16;;;;;;;;;39.75;35.25;;;;;4.44;67.65;102695.00;4980034;28;47046;-66
2022/01/11 07:07:42;;;;;;;;;34.50;31.75;;;;;4.21;67.71;102692.34;4979893;28;45390;-66
2022/01/11 07:10:08;;;;;;;;;54.25;36.00;;;;;4.03;68.45;102680.72;4980082;28;45535;-67
2022/01/11 07:12:34;;;;;;;;;50.50;41.25;;;;;3.30;68.10;102563.13;4996364;28;45442;-65
2022/01/11 07:14:59;;;;;;;;;53.00;40.25;;;;;3.80;69.36;102676.22;4986751;28;46500;-67
2022/01/11 07:17:25;;;;;;;;;53.25;40.50;;;;;3.89;69.32;102715.38;4985053;28;45456;-68
2022/01/11 07:19:50;;;;;;;;;48.00;39.00;;;;;3.80;69.94;102713.06;4975560;28;45620;-69
2022/01/11 07:22:16;;;;;;;;;42.25;35.50;;;;;3.88;69.55;102723.34;4968749;28;45243;-68
2022/01/11 07:24:41;;;;;;;;;41.67;32.33;;;;;3.97;69.70;102723.88;4980200;28;48853;-70
2022/01/11 07:27:06;;;;;;;;;41.33;30.00;;;;;3.74;70.28;102689.59;4979341;28;46018;-67
2022/01/11 07:29:32;;;;;;;;;44.33;35.67;;;;;3.72;70.19;102678.28;4960794;28;45259;-67
2022/01/11 07:31:57;;;;;;;;;47.75;40.00;;;;;3.85;69.76;102740.09;4960817;28;45496;-66
2022/01/11 07:34:23;;;;;;;;;43.67;36.33;;;;;3.69;70.38;102714.34;4977712;28;45434;-66
2022/01/11 07:36:48;;;;;;;;;46.25;40.50;;;;;3.96;70.34;102744.97;4977813;28;45229;-66
2022/01/11 07:39:14;;;;;;;;;44.33;37.33;;;;;4.01;70.00;102743.06;4960284;28;45433;-67
2022/01/11 07:41:40;;;;;;;;;44.67;37.33;;;;;4.20;69.39;102759.06;4976723;28;45563;-67
2022/01/11 07:44:06;;;;;;;;;41.50;37.00;;;;;4.25;69.31;102763.28;4977220;28;46284;-68
2022/01/11 07:46:31;;;;;;;;;50.75;41.50;;;;;4.23;69.06;102767.72;4982269;28;45487;-68
2022/01/11 07:48:59;;;;;;;;;40.25;37.00;;;;;4.25;69.66;102768.53;4997368;28;45638;-67
2022/01/11 07:51:25;;;;;;;;;54.00;41.25;;;;;4.13;69.52;102752.28;4973585;28;45541;-70
2022/01/11 07:53:52;;;;;;;;;57.50;38.75;;;;;4.00;69.75;102722.03;4955669;28;46475;-67
2022/01/11 07:56:18;;;;;;;;;56.33;42.00;;;;;3.90;68.95;102703.94;4972432;28;45569;-66
2022/01/11 07:58:44;;;;;;;;;53.75;40.50;;;;;4.17;68.77;102764.44;4971919;28;45536;-69
2022/01/11 08:01:09;;;;;;;;;53.00;42.00;;;;;4.02;68.63;102743.94;4978769;28;45552;-68
2022/01/11 08:03:34;;;;;;;;;47.25;41.25;;;;;4.22;69.94;102773.06;4994771;28;47023;-67
2022/01/11 08:06:00;;;;;;;;;51.75;39.50;;;;;4.15;68.99;102758.38;4993777;28;45476;-68
2022/01/11 08:08:25;;;;;;;;;50.50;42.25;;;;;3.98;68.48;102748.41;4996925;28;45310;-67
2022/01/11 08:10:51;;;;;;;;;53.00;43.75;;;;;3.47;68.54;102666.88;4975234;28;45483;-70
2022/01/11 08:13:19;;;;;;;;;53.25;42.75;;;;;4.01;69.35;102763.28;4973049;28;46376;-67
2022/01/11 08:15:44;;;;;;;;;56.00;44.75;;;;;4.14;69.69;102785.59;4970920;28;45427;-67
2022/01/11 08:18:10;;;;;;;;;56.75;42.75;;;;;4.02;69.46;102757.09;4956460;28;46004;-68
2022/01/11 08:20:35;;;;;;;;;46.50;40.75;;;;;4.04;68.95;102756.13;4971345;28;45427;-68
2022/01/11 08:23:01;;;;;;;;;55.75;41.25;;;;;4.01;70.00;102761.50;4969534;28;46265;-66
2022/01/11 08:25:27;;;;;;;;;54.00;45.50;;;;;4.18;69.49;102808.28;4952169;28;45965;-69
2022/01/11 08:27:52;;;;;;;;;53.50;42.25;;;;;3.92;69.59;102767.91;4971196;28;45352;-68
2022/01/11 08:30:19;;;;;;;;;49.00;40.50;;;;;3.93;69.74;102776.66;4970269;28;45425;-68
2022/01/11 08:32:45;;;;;;;;;54.75;40.25;;;;;4.09;69.43;102812.09;4969110;28;46946;-68
2022/01/11 08:35:10;;;;;;;;;48.00;41.50;;;;;4.09;69.38;102816.50;4975772;28;45363;-67
2022/01/11 08:37:36;;;;;;;;;49.50;40.00;;;;;4.06;69.21;102795.53;4964312;28;45591;-67
2022/01/11 08:40:02;;;;;;;;;50.00;39.75;;;;;4.12;68.84;102795.31;4996696;28;45491;-67
2022/01/11 08:42:29;;;;;;;;;36.75;33.25;;;;;4.15;69.14;102808.38;4996173;28;48521;-66
2022/01/11 08:44:55;;;;;;;;;56.50;45.00;;;;;4.13;69.11;102813.69;4978759;28;45308;-69
2022/01/11 08:47:21;;;;;;;;;55.50;41.50;;;;;4.09;69.47;102816.50;4978495;28;45263;-68
2022/01/11 08:49:47;;;;;;;;;54.75;35.00;;;;;4.01;69.07;102810.63;4996698;28;45302;-69
2022/01/11 08:52:13;;;;;;;;;50.00;36.50;;;;;3.95;69.03;102804.66;4989369;28;45613;-64
2022/01/11 08:54:39;;;;;;;;;46.00;39.00;;;;;3.84;69.66;102775.22;4973119;28;45702;-68
2022/01/11 08:57:08;;;;;;;;;60.50;45.75;;;;;3.45;68.55;102705.50;4981084;28;45536;-68
2022/01/11 08:59:33;;;;;;;;;53.50;42.00;;;;;3.92;69.09;102778.44;4957183;28;45648;-69
2022/01/11 09:02:01;;;;;;;;;51.75;41.75;;;;;3.93;69.34;102777.53;4956701;28;46892;-70
2022/01/11 09:04:27;;;;;;;;;54.25;43.75;;;;;3.71;68.88;102747.59;4974832;28;45636;-73
2022/01/11 09:06:58;;;;;;;;;58.25;45.50;;;;;4.12;69.62;102808.50;4973749;28;45553;-70
2022/01/11 09:09:28;;;;;;;;;52.50;40.75;;;;;4.24;69.52;102814.22;4974621;28;45370;-68
2022/01/11 09:11:57;;;;;;;;;52.25;41.00;;;;;4.25;68.49;102804.53;4955444;28;48660;-67
2022/01/11 09:14:23;;;;;;;;;50.75;40.00;;;;;4.46;68.04;102818.72;4970851;28;45492;-67
2022/01/11 09:16:48;;;;;;;;;49.50;40.75;;;;;4.65;68.41;102822.44;4976455;28;45433;-67
2022/01/11 09:19:15;;;;;;;;;51.75;39.50;;;;;4.63;67.42;102818.13;4957869;28;45563;-67
2022/01/11 09:21:40;;;;;;;;;49.50;40.00;;;;;4.69;67.59;102831.06;4975425;28;46356;-68
2022/01/11 09:24:08;;;;;;;;;46.00;39.00;;;;;4.65;67.40;102824.22;4978238;28;45472;-67
2022/01/11 09:26:34;;;;;;;;;55.50;41.50;;;;;4.51;67.14;102812.38;4959742;28;45470;-68
2022/01/11 09:29:00;;;;;;;;;52.25;40.00;;;;;3.96;67.03;102713.41;4978172;28;45620;-67
2022/01/11 09:31:26;;;;;;;;;41.50;36.25;;;;;4.68;66.89;102829.34;4978664;28;45758;-81
2022/01/11 09:33:52;;;;;;;;;48.00;39.67;;;;;4.61;67.17;102812.06;4965175;28;45416;-81
2022/01/11 09:36:18;;;;;;;;;51.67;41.33;;;;;4.24;66.86;102750.16;4949845;28;45410;-82
2022/01/11 09:38:43;;;;;;;;;52.33;41.33;;;;;4.80;66.98;102850.84;4966652;28;45384;-67
2022/01/11 09:41:09;;;;;;;;;63.00;46.50;;;;;4.55;66.53;102821.88;4976771;28;46695;-67
2022/01/11 09:43:35;;;;;;;;;58.25;44.75;;;;;4.74;67.35;102850.22;4977639;28;46085;-68
2022/01/11 09:46:00;;;;;;;;;59.00;46.25;;;;;4.60;67.43;102848.06;4978924;28;45455;-67
2022/01/11 09:48:29;;;;;;;;;59.75;46.00;;;;;4.54;67.58;102804.34;4962145;28;45457;-70
2022/01/11 09:50:55;;;;;;;;;48.50;41.50;;;;;4.82;66.66;102833.22;4979955;28;46690;-69
2022/01/11 09:53:21;;;;;;;;;55.50;43.00;;;;;4.95;66.53;102853.84;4980030;28;45429;-68
2022/01/11 09:55:46;;;;;;;;;56.00;44.25;;;;;4.77;67.36;102827.25;4979796;28;45284;-68
2022/01/11 09:58:13;;;;;;;;;56.75;42.50;;;;;4.92;66.45;102854.81;4978851;28;45502;-70
2022/01/11 10:00:39;;;;;;;;;56.75;44.75;;;;;4.84;66.92;102862.16;4978460;28;46621;-68
2022/01/11 10:03:08;;;;;;;;;59.50;43.00;;;;;4.71;67.09;102869.63;4978385;28;45380;-66
2022/01/11 10:05:36;;;;;;;;;57.00;43.50;;;;;4.51;67.80;102849.25;4962072;28;45299;-66
2022/01/11 10:08:21;;;;;;;;;54.00;44.75;;;;;4.55;67.88;102868.44;4962173;28;45291;-68
2022/01/11 10:10:48;;;;;;;;;42.75;38.00;;;;;4.44;67.32;102842.50;4977483;28;47248;-68
2022/01/11 10:13:32;;;;;;;;;58.00;44.50;;;;;4.49;67.99;102860.75;4979197;28;45470;-68
2022/01/11 10:16:16;;;;;;;;;61.25;47.25;;;;;4.40;67.88;102859.28;4978409;28;45492;-66
2022/01/11 10:18:41;;;;;;;;;57.00;46.25;;;;;4.39;68.15;102844.41;4961718;28;45616;-69
2022/01/11 10:21:33;;;;;;;;;57.50;46.50;;;;;4.54;68.32;102875.47;4961187;28;46693;-69
2022/01/11 10:24:00;;;;;;;;;61.50;45.25;;;;;4.42;67.84;102875.91;4961341;28;45409;-75
2022/01/11 10:26:45;;;;;;;;;42.00;37.25;;;;;3.85;67.83;102790.09;4983101;28;45274;-68
2022/01/11 10:29:26;;;;;;;;;57.00;44.50;;;;;3.84;68.51;102772.59;4981386;28;45530;-68
2022/01/11 10:31:52;;;;;;;;;59.50;44.25;;;;;4.58;67.66;102879.72;4982421;28;45695;-68
2022/01/11 10:34:33;;;;;;;;;55.25;45.25;;;;;4.67;67.82;102864.53;4978190;28;45298;-68
2022/01/11 10:37:01;;;;;;;;;52.25;42.00;;;;;4.73;66.67;102853.75;4978846;28;45522;-69
2022/01/11 10:39:34;;;;;;;;;52.25;40.00;;;;;4.77;66.76;102889.63;4961096;28;45480;-67
2022/01/11 10:42:01;;;;;;;;;58.75;42.00;;;;;4.62;66.76;102893.69;4974521;28;46305;-68
2022/01/11 10:44:51;;;;;;;;;54.50;40.00;;;;;4.47;67.04;102868.72;4975663;28;45489;-67
2022/01/11 10:47:23;;;;;;;;;55.50;44.50;;;;;4.68;67.31;102882.06;4979255;28;45379;-71
2022/01/11 10:49:51;;;;;;;;;55.25;44.00;;;;;4.89;67.14;102881.28;4961527;28;45234;-69
2022/01/11 10:52:24;;;;;;;;;56.50;42.75;;;;;4.99;66.93;102890.56;4978658;28;45366;-70
2022/01/11 10:54:50;;;;;;;;;56.00;44.50;;;;;4.99;66.27;102851.03;4960637;28;45963;-71
2022/01/11 10:57:20;;;;;;;;;48.50;41.00;;;;;4.95;66.40;102828.34;4989930;28;45352;-68
2022/01/11 11:00:07;;;;;;;;;55.75;45.00;;;;;5.28;66.00;102854.38;4979749;28;45313;-69
2022/01/11 11:02:32;;;;;;;;;55.75;45.00;;;;;5.63;65.47;102880.25;4967360;28;46655;-72
2022/01/11 11:04:58;;;;;;;;;57.25;42.50;;;;;5.69;64.67;102885.28;4977944;28;45366;-68
2022/01/11 11:07:26;;;;;;;;;59.00;45.50;;;;;4.80;64.68;102734.03;4975120;28;45432;-69
2022/01/11 11:09:52;;;;;;;;;55.00;41.25;;;;;4.75;64.99;102741.25;4976912;28;45478;-69
2022/01/11 11:12:20;;;;;;;;;52.25;39.25;;;;;5.43;65.08;102882.81;4977708;28;47524;-70
2022/01/11 11:14:56;;;;;;;;;57.50;46.00;;;;;5.30;65.17;102890.31;4960900;28;45493;-69
2022/01/11 11:17:31;;;;;;;;;52.75;41.00;;;;;5.24;65.61;102887.06;4978323;28;45560;-68
2022/01/11 11:20:01;;;;;;;;;54.75;45.25;;;;;5.16;65.80;102890.81;4979017;28;45257;-68